Time;durP1;ratioP1;P1;durP2;ratioP2;P2;SDS_P1;SDS_P2;PMS_P1;PMS_P2;Temp;Humidity;BMP_temperature;BMP_pressure;BME280_temperature;BME280_humidity;BME280_pressure;Samples;Min_cycle;Max_cycle;Signal;HPM_P1;HPM_P2
2022/03/20 00:01:51;;;;;;;42.13;26.05;;;;;;;5.35;90.81;101695.69;5054072;28;20102;-71
2022/03/20 00:04:35;;;;;;;124.28;77.47;;;;;;;5.37;89.06;101699.09;5054248;28;20055;-71
2022/03/20 00:07:19;;;;;;;43.58;28.08;;;;;;;5.23;88.71;101697.13;5054058;28;20451;-71
2022/03/20 00:10:05;;;;;;;39.90;19.38;;;;;;;5.17;88.72;101696.59;5053068;28;20407;-71
2022/03/20 00:12:49;;;;;;;39.90;26.17;;;;;;;5.18;88.84;101688.59;5054090;28;20521;-71
2022/03/20 00:15:34;;;;;;;43.70;26.77;;;;;;;5.19;88.23;101690.31;5052792;28;20083;-71
2022/03/20 00:18:23;;;;;;;42.35;24.80;;;;;;;5.13;88.02;101682.66;5053934;28;20048;-71
2022/03/20 00:21:10;;;;;;;39.72;24.70;;;;;;;5.10;88.47;101680.19;5052716;28;20432;-71
2022/03/20 00:23:53;;;;;;;37.45;25.15;;;;;;;5.08;88.74;101679.41;5052800;28;20526;-71
2022/03/20 00:26:39;;;;;;;51.78;34.67;;;;;;;5.08;87.72;101671.47;5052908;28;20546;-71
2022/03/20 00:29:27;;;;;;;44.55;27.92;;;;;;;5.07;88.82;101674.19;5053181;28;20111;-71
2022/03/20 00:32:13;;;;;;;45.55;29.80;;;;;;;5.01;89.10;101663.94;5053051;28;20170;-71
2022/03/20 00:34:59;;;;;;;43.28;27.45;;;;;;;4.97;88.76;101661.50;5052514;28;20472;-70
2022/03/20 00:37:43;;;;;;;35.63;23.17;;;;;;;4.88;88.45;101661.97;5052654;28;20106;-71
2022/03/20 00:40:27;;;;;;;53.95;30.80;;;;;;;4.83;88.61;101663.94;5038230;28;20056;-71
2022/03/20 00:43:12;;;;;;;57.63;34.90;;;;;;;4.78;89.30;101658.88;5052622;28;20419;-71
2022/03/20 00:45:55;;;;;;;70.78;39.47;;;;;;;4.86;87.60;101658.53;5052620;28;20093;-71
2022/03/20 00:48:39;;;;;;;58.13;33.83;;;;;;;4.84;87.26;101653.31;5038647;28;20450;-71
2022/03/20 00:51:23;;;;;;;61.58;33.85;;;;;;;4.87;87.52;101649.69;5053487;28;20052;-71
2022/03/20 00:54:07;;;;;;;65.20;35.47;;;;;;;4.90;85.65;101657.44;5053489;28;20048;-70
2022/03/20 00:56:52;;;;;;;65.43;36.08;;;;;;;4.90;84.95;101650.34;5053282;28;20047;-70
2022/03/20 00:59:36;;;;;;;57.90;32.47;;;;;;;4.89;83.86;101650.47;5053342;28;20051;-71
2022/03/20 01:02:20;;;;;;;40.03;24.27;;;;;;;4.94;82.13;101646.66;5053166;28;20416;-71
2022/03/20 01:05:04;;;;;;;41.95;23.42;;;;;;;4.94;81.77;101642.22;5038288;28;20099;-71
2022/03/20 01:07:48;;;;;;;42.35;26.60;;;;;;;4.87;82.42;101639.13;5052372;28;20053;-71
2022/03/20 01:10:32;;;;;;;60.60;35.65;;;;;;;4.86;81.75;101643.53;5052948;28;20099;-71
2022/03/20 01:13:16;;;;;;;35.45;22.67;;;;;;;4.79;81.18;101641.28;5053019;28;20052;-71
2022/03/20 01:16:00;;;;;;;38.78;21.08;;;;;;;4.78;80.23;101627.19;5053028;28;20055;-71
2022/03/20 01:18:44;;;;;;;34.65;20.85;;;;;;;4.77;81.62;101632.56;5052132;28;20075;-71
2022/03/20 01:21:30;;;;;;;45.03;27.58;;;;;;;4.73;81.79;101616.00;5038175;28;20471;-71
2022/03/20 01:24:14;;;;;;;59.97;33.92;;;;;;;4.72;81.40;101624.00;5052253;28;20047;-71
2022/03/20 01:26:57;;;;;;;47.92;28.95;;;;;;;4.80;80.62;101616.56;5053164;28;20044;-71
2022/03/20 01:29:41;;;;;;;40.20;21.48;;;;;;;4.78;81.66;101607.84;5051974;28;20129;-71
2022/03/20 01:32:28;;;;;;;36.20;20.80;;;;;;;4.84;81.09;101607.53;5051835;28;20110;-71
2022/03/20 01:35:12;;;;;;;42.83;24.45;;;;;;;4.85;79.91;101609.25;5052811;28;20071;-71
2022/03/20 01:37:56;;;;;;;35.70;21.58;;;;;;;4.76;79.84;101602.63;5052997;28;20048;-71
2022/03/20 01:40:40;;;;;;;35.65;19.90;;;;;;;4.73;79.90;101594.00;5039827;28;20044;-71
2022/03/20 01:43:24;;;;;;;46.40;23.42;;;;;;;4.71;79.62;101591.47;5056641;28;20052;-71
2022/03/20 01:46:07;;;;;;;33.85;18.73;;;;;;;4.65;79.71;101585.59;5055623;28;20052;-71
2022/03/20 01:48:55;;;;;;;38.35;19.38;;;;;;;4.56;79.81;101586.06;5055748;28;20044;-71
2022/03/20 01:54:47;;;;;;;27.50;15.75;;;;;;;4.44;80.26;101586.63;5055668;28;20105;-71
2022/03/20 01:57:36;;;;;;;24.52;15.40;;;;;;;4.39;80.25;101584.22;5056373;28;20052;-71
2022/03/20 02:00:21;;;;;;;29.02;16.90;;;;;;;4.34;80.15;101577.44;5055418;28;20122;-71
2022/03/20 02:03:05;;;;;;;26.63;16.27;;;;;;;4.30;80.49;101573.25;5055316;28;20130;-71
2022/03/20 02:05:48;;;;;;;26.92;16.98;;;;;;;4.24;80.35;101584.09;5055258;28;20068;-71
2022/03/20 02:08:36;;;;;;;27.95;17.63;;;;;;;4.24;81.13;101573.53;5055296;28;20104;-71
2022/03/20 02:11:20;;;;;;;31.75;18.33;;;;;;;4.23;81.70;101570.06;5055429;28;20515;-71
2022/03/20 02:14:05;;;;;;;31.67;17.88;;;;;;;4.33;83.19;101562.53;5041254;28;20048;-71
2022/03/20 02:16:50;;;;;;;38.47;21.20;;;;;;;4.45;81.36;101567.25;5055309;28;20128;-71
2022/03/20 02:19:34;;;;;;;44.47;21.67;;;;;;;4.59;78.75;101562.97;5054900;28;20577;-71
2022/03/20 02:22:18;;;;;;;37.42;19.75;;;;;;;4.69;78.30;101556.31;5055482;28;20399;-71
2022/03/20 02:25:06;;;;;;;40.03;22.40;;;;;;;4.77;77.13;101558.59;5055873;28;20539;-71
2022/03/20 02:27:49;;;;;;;38.88;22.92;;;;;;;4.90;74.91;101546.47;5054831;28;20080;-71
2022/03/20 02:30:33;;;;;;;36.78;21.20;;;;;;;4.92;74.69;101541.97;5055493;28;20051;-70
2022/03/20 02:33:19;;;;;;;30.67;19.25;;;;;;;4.94;74.29;101541.78;5054709;28;20047;-71
2022/03/20 02:36:04;;;;;;;33.80;18.55;;;;;;;4.99;73.43;101549.47;5054955;28;20087;-71
2022/03/20 02:38:47;;;;;;;32.80;16.90;;;;;;;5.12;72.80;101547.94;5055746;28;20056;-71
2022/03/20 02:41:32;;;;;;;30.70;17.95;;;;;;;5.27;71.41;101553.28;5054583;28;20132;-71
2022/03/20 02:44:16;;;;;;;27.05;15.98;;;;;;;5.26;70.69;101546.28;5055061;28;20074;-71
2022/03/20 02:47:05;;;;;;;38.42;21.23;;;;;;;5.34;70.23;101536.16;5040677;28;20561;-71
2022/03/20 02:49:54;;;;;;;42.50;23.98;;;;;;;5.41;70.90;101540.19;5055598;28;20047;-71
2022/03/20 02:52:47;;;;;;;45.85;24.63;;;;;;;5.41;70.13;101526.97;5054332;28;20048;-71
2022/03/20 02:55:34;;;;;;;38.47;20.63;;;;;;;5.38;69.14;101524.50;5040921;28;20091;-71
2022/03/20 02:58:18;;;;;;;47.63;23.52;;;;;;;5.41;68.56;101521.69;5054997;28;20512;-71
2022/03/20 03:01:02;;;;;;;44.97;24.63;;;;;;;5.38;69.30;101524.50;5054269;28;20071;-71
2022/03/20 03:03:46;;;;;;;42.38;23.50;;;;;;;5.42;68.79;101507.50;5054475;28;20075;-71
2022/03/20 03:06:30;;;;;;;38.85;21.30;;;;;;;5.42;67.98;101518.09;5054109;28;20044;-71
2022/03/20 03:12:23;;;;;;;31.25;17.00;;;;;;;5.44;68.21;101536.53;5054983;28;20128;-71
2022/03/20 03:15:20;;;;;;;46.45;21.48;;;;;;;5.44;66.60;101532.06;5055202;28;20104;-71
2022/03/20 03:18:04;;;;;;;41.25;21.42;;;;;;;5.49;66.70;101529.19;5041396;28;20465;-71
2022/03/20 03:20:49;;;;;;;47.58;25.70;;;;;;;5.42;66.90;101525.19;5054753;28;20563;-71
2022/03/20 03:23:36;;;;;;;78.82;34.30;;;;;;;5.40;67.79;101513.81;5039971;28;20510;-71
2022/03/20 03:26:19;;;;;;;47.53;25.10;;;;;;;5.46;67.11;101506.41;5053759;28;20519;-71
2022/03/20 03:29:04;;;;;;;38.58;20.48;;;;;;;5.53;66.04;101510.44;5054858;28;20048;-71
2022/03/20 03:31:48;;;;;;;31.08;19.40;;;;;;;5.53;66.41;101506.94;5054616;28;20409;-71
2022/03/20 03:37:34;;;;;;;29.42;17.67;;;;;;;5.69;65.56;101502.53;5053879;28;20563;-71
2022/03/20 03:40:18;;;;;;;30.70;19.10;;;;;;;5.74;64.68;101506.63;5054706;28;20060;-71
2022/03/20 03:43:03;;;;;;;;;;;;;;;5.76;64.14;101507.38;5054805;28;20086;-71
2022/03/20 03:45:47;;;;;;;31.63;20.67;;;;;;;5.67;64.92;101497.34;5053685;28;19934;-71
2022/03/20 03:48:31;;;;;;;34.00;18.90;;;;;;;5.66;64.13;101495.59;5053537;28;20519;-71
2022/03/20 03:51:15;;;;;;;29.90;18.08;;;;;;;5.65;64.15;101493.88;5054529;28;20132;-71
2022/03/20 03:53:59;;;;;;;28.98;17.15;;;;;;;5.78;62.73;101488.78;5054261;28;20103;-71
2022/03/20 03:56:43;;;;;;;29.33;17.15;;;;;;;5.80;63.40;101486.94;5054247;28;20048;-71
2022/03/20 03:59:27;;;;;;;30.73;17.30;;;;;;;5.73;63.19;101491.69;5053236;28;20511;-71
2022/03/20 04:02:11;;;;;;;30.30;17.50;;;;;;;5.72;63.09;101492.63;5052488;28;20048;-71
2022/03/20 04:04:55;;;;;;;25.30;16.73;;;;;;;5.70;63.05;101501.56;5053282;28;20051;-71
2022/03/20 04:07:39;;;;;;;29.98;17.13;;;;;;;5.74;63.77;101506.63;5053251;28;20048;-71
2022/03/20 04:10:24;;;;;;;28.50;16.92;;;;;;;5.75;64.11;101502.19;5052816;28;20511;-71
2022/03/20 04:13:08;;;;;;;28.60;17.15;;;;;;;5.70;64.14;101505.09;5054108;28;20048;-71
2022/03/20 04:15:52;;;;;;;29.95;16.23;;;;;;;5.76;63.88;101507.38;5053085;28;20407;-71
2022/03/20 04:18:35;;;;;;;25.10;14.95;;;;;;;5.76;64.08;101517.13;5053716;28;20052;-71
2022/03/20 04:21:19;;;;;;;26.48;15.77;;;;;;;5.79;65.13;101514.34;5053003;28;20058;-71
2022/03/20 04:24:04;;;;;;;25.98;15.93;;;;;;;5.82;64.16;101506.22;5052941;28;20120;-71
2022/03/20 04:26:48;;;;;;;26.65;16.05;;;;;;;5.84;63.63;101505.22;5039047;28;20044;-71
2022/03/20 04:29:32;;;;;;;27.83;15.73;;;;;;;5.83;63.50;101502.66;5052519;28;20523;-71
2022/03/20 04:32:16;;;;;;;26.35;15.00;;;;;;;5.81;63.39;101508.03;5052524;28;20052;-71
2022/03/20 04:35:00;;;;;;;26.25;15.68;;;;;;;5.75;63.38;101513.63;5052457;28;20101;-71
2022/03/20 04:37:44;;;;;;;;;;;;;;;5.73;64.29;101512.84;5053083;28;20048;-71
2022/03/20 04:40:29;;;;;;;24.70;16.05;;;;;;;5.80;64.79;101513.41;5052413;28;19965;-71
2022/03/20 04:43:12;;;;;;;26.25;16.48;;;;;;;5.77;65.08;101501.16;5038281;28;20476;-71
2022/03/20 04:45:56;;;;;;;24.45;14.68;;;;;;;5.73;64.07;101512.03;5052675;28;20043;-71
2022/03/20 05:00:59;;;;;;;22.20;15.10;;;;;;;5.51;65.17;101522.88;5042622;28;20091;-70
2022/03/20 05:03:42;;;;;;;23.35;14.73;;;;;;;5.39;65.44;101534.13;5052138;28;20131;-71
2022/03/20 05:06:27;;;;;;;24.85;14.85;;;;;;;5.30;66.49;101529.31;5053418;28;20087;-71
2022/03/20 05:15:22;;;;;;;25.38;15.45;;;;;;;5.05;69.03;101534.16;5056840;28;20051;-71
2022/03/20 05:18:07;;;;;;;23.83;14.35;;;;;;;5.04;69.31;101537.75;5057077;28;20416;-72
2022/03/20 05:20:52;;;;;;;25.85;15.57;;;;;;;4.97;69.28;101539.94;5056279;28;20135;-71
2022/03/20 05:23:37;;;;;;;23.65;15.30;;;;;;;4.90;69.27;101543.81;5057057;28;20242;-70
2022/03/20 05:26:21;;;;;;;25.38;15.30;;;;;;;4.80;70.17;101539.94;5056500;28;20182;-71
2022/03/20 05:29:05;;;;;;;26.17;15.23;;;;;;;4.71;70.55;101543.91;5056204;28;20408;-71
2022/03/20 05:31:49;;;;;;;22.90;15.27;;;;;;;4.69;70.96;101542.25;5057003;28;20052;-71
2022/03/20 05:34:33;;;;;;;23.25;14.60;;;;;;;4.61;71.60;101542.66;5056111;28;20068;-71
2022/03/20 05:37:17;;;;;;;24.58;15.10;;;;;;;4.53;72.01;101543.94;5056042;28;20486;-71
2022/03/20 05:40:03;;;;;;;24.42;14.23;;;;;;;4.47;72.62;101538.97;5055823;28;20530;-71
2022/03/20 05:42:47;;;;;;;25.08;14.32;;;;;;;4.46;73.50;101532.00;5056207;28;20068;-71
2022/03/20 05:45:31;;;;;;;28.30;15.48;;;;;;;4.43;73.79;101532.13;5055928;28;20056;-71
2022/03/20 05:48:15;;;;;;;31.70;14.93;;;;;;;4.41;74.50;101549.84;5056876;28;20047;-71
2022/03/20 05:50:59;;;;;;;23.05;14.18;;;;;;;4.45;74.86;101543.50;5055708;28;20094;-71
2022/03/20 05:53:43;;;;;;;32.20;17.33;;;;;;;4.49;74.00;101542.41;5056486;28;20052;-70
2022/03/20 05:59:30;;;;;;;28.33;18.00;;;;;;;4.45;74.52;101559.34;5055423;28;20052;-71
2022/03/20 06:02:15;;;;;;;26.15;15.80;;;;;;;4.54;74.07;101557.09;5055636;28;20084;-71
2022/03/20 06:04:58;;;;;;;30.17;17.05;;;;;;;4.53;74.64;101550.09;5055525;28;20511;-71
2022/03/20 06:07:47;;;;;;;31.20;16.50;;;;;;;4.56;74.71;101557.03;5055396;28;20051;-71
2022/03/20 06:10:32;;;;;;;25.45;14.65;;;;;;;4.61;74.45;101560.28;5055408;28;20095;-71
2022/03/20 06:13:16;;;;;;;26.25;15.27;;;;;;;4.69;73.44;101566.03;5055644;28;20048;-71
2022/03/20 06:15:59;;;;;;;27.15;15.48;;;;;;;4.76;72.30;101563.00;5055540;28;20053;-71
2022/03/20 06:18:44;;;;;;;25.42;15.40;;;;;;;4.88;71.75;101574.75;5055185;28;20052;-71
2022/03/20 06:21:28;;;;;;;25.95;16.33;;;;;;;4.93;71.59;101566.50;5055946;28;20575;-71
2022/03/20 06:24:12;;;;;;;23.67;14.85;;;;;;;5.02;72.01;101571.31;5054925;28;20058;-71
2022/03/20 06:26:56;;;;;;;25.88;15.77;;;;;;;5.10;71.26;101579.72;5055673;28;20426;-71
2022/03/20 06:29:40;;;;;;;26.80;14.95;;;;;;;5.20;70.99;101590.69;5054771;28;20465;-71
2022/03/20 06:32:27;;;;;;;26.92;15.32;;;;;;;5.20;69.86;101596.84;5055756;28;20064;-71
2022/03/20 06:35:12;;;;;;;25.33;15.20;;;;;;;5.25;69.67;101599.25;5055700;28;20056;-71
2022/03/20 06:37:56;;;;;;;22.75;14.45;;;;;;;5.25;69.24;101586.88;5054608;28;20048;-70
2022/03/20 06:40:40;;;;;;;25.17;15.48;;;;;;;5.33;69.54;101587.31;5040489;28;20051;-71
2022/03/20 06:43:24;;;;;;;22.92;14.63;;;;;;;5.46;68.56;101590.19;5055828;28;20122;-71
2022/03/20 06:46:08;;;;;;;26.58;15.57;;;;;;;5.50;68.61;101597.88;5055777;28;20051;-71
2022/03/20 06:48:51;;;;;;;31.13;15.70;;;;;;;5.69;68.18;101598.63;5054714;28;20091;-71
2022/03/20 06:51:35;;;;;;;25.50;14.52;;;;;;;5.85;68.06;101601.34;5054717;28;20079;-71
2022/03/20 06:54:20;;;;;;;24.13;15.02;;;;;;;5.97;67.00;101600.69;5054545;28;20500;-71
2022/03/20 06:57:04;;;;;;;26.02;15.40;;;;;;;6.02;66.61;101596.84;5054207;28;20094;-71
2022/03/20 06:59:48;;;;;;;24.58;15.35;;;;;;;6.07;67.42;101602.72;5054459;28;20137;-71
2022/03/20 07:02:32;;;;;;;23.90;16.17;;;;;;;6.10;67.00;101622.91;5054225;28;20171;-71
2022/03/20 07:05:16;;;;;;;25.15;15.95;;;;;;;6.17;67.05;101618.97;5040328;28;20546;-71
2022/03/20 07:08:00;;;;;;;24.60;15.10;;;;;;;6.22;66.67;101608.97;5054164;28;20539;-71
2022/03/20 07:10:44;;;;;;;28.15;16.92;;;;;;;6.07;67.20;101615.13;5055243;28;20055;-71
2022/03/20 07:16:32;;;;;;;26.60;15.80;;;;;;;6.47;67.95;101628.72;5055259;28;20087;-71
2022/03/20 07:19:16;;;;;;;29.48;17.88;;;;;;;6.68;66.98;101624.03;5053925;28;20535;-71
2022/03/20 07:22:00;;;;;;;24.83;15.18;;;;;;;6.70;65.30;101638.03;5054164;28;20094;-71
2022/03/20 07:24:44;;;;;;;24.23;15.88;;;;;;;6.81;65.36;101633.84;5055076;28;20503;-71
2022/03/20 07:30:31;;;;;;;25.02;15.43;;;;;;;7.10;64.72;101646.25;5053806;28;20458;-71
2022/03/20 07:33:15;;;;;;;33.70;18.88;;;;;;;7.41;65.17;101643.53;5054128;28;20556;-71
2022/03/20 07:36:00;;;;;;;33.75;18.85;;;;;;;7.47;64.25;101655.59;5054809;28;20039;-71
2022/03/20 07:38:45;;;;;;;32.20;18.77;;;;;;;7.07;65.94;101662.34;5053302;28;20067;-71
2022/03/20 07:41:29;;;;;;;32.97;18.92;;;;;;;7.35;65.70;101653.63;5054763;28;20191;-71
2022/03/20 07:44:13;;;;;;;26.90;17.58;;;;;;;7.67;64.17;101656.09;5053790;28;20048;-71
2022/03/20 07:46:58;;;;;;;27.80;17.05;;;;;;;8.04;63.90;101658.22;5053669;28;20407;-71
2022/03/20 07:49:42;;;;;;;30.02;18.40;;;;;;;8.11;62.69;101655.06;5053530;28;20047;-71
2022/03/20 07:52:27;;;;;;;31.88;18.35;;;;;;;8.30;61.39;101649.47;5039250;28;20079;-71
2022/03/20 07:55:11;;;;;;;30.63;18.55;;;;;;;8.47;60.56;101644.81;5039297;28;20043;-71
2022/03/20 07:57:57;;;;;;;27.77;18.42;;;;;;;8.73;61.65;101648.44;5054053;28;20078;-71
2022/03/20 08:00:41;;;;;;;27.88;17.80;;;;;;;8.37;59.68;101653.47;5053324;28;20059;-71
2022/03/20 08:03:25;;;;;;;36.92;21.38;;;;;;;8.15;61.12;101661.06;5053342;28;20408;-71
2022/03/20 08:06:09;;;;;;;32.15;19.30;;;;;;;8.48;61.22;101648.31;5053995;28;20102;-71
2022/03/20 08:08:53;;;;;;;26.52;17.65;;;;;;;8.78;60.92;101641.03;5052967;28;20086;-71
2022/03/20 08:11:37;;;;;;;30.42;18.60;;;;;;;8.83;60.87;101660.19;5054185;28;20075;-71
2022/03/20 08:14:22;;;;;;;31.08;19.92;;;;;;;8.90;60.84;101661.50;5054109;28;20118;-71
2022/03/20 08:17:07;;;;;;;31.40;17.90;;;;;;;8.98;60.73;101653.88;5053001;28;20427;-71
2022/03/20 08:19:51;;;;;;;29.85;19.30;;;;;;;9.16;60.56;101652.69;5052706;28;20107;-71
2022/03/20 08:22:35;;;;;;;32.80;18.75;;;;;;;9.16;59.18;101656.16;5053930;28;20047;-71
2022/03/20 08:25:19;;;;;;;31.50;20.33;;;;;;;8.47;60.90;101651.94;5052905;28;20130;-71
2022/03/20 08:28:05;;;;;;;27.77;18.73;;;;;;;8.72;60.62;101662.69;5052940;28;20040;-71
2022/03/20 08:30:49;;;;;;;31.60;20.20;;;;;;;8.53;61.79;101663.03;5038986;28;20048;-71
2022/03/20 08:33:33;;;;;;;32.15;19.25;;;;;;;8.72;61.38;101666.22;5053642;28;20086;-71
2022/03/20 08:36:18;;;;;;;30.77;19.42;;;;;;;8.49;60.82;101665.97;5053739;28;20087;-71
2022/03/20 08:39:02;;;;;;;32.67;20.27;;;;;;;8.55;61.60;101662.94;5053348;28;20424;-71
2022/03/20 08:41:47;;;;;;;30.42;19.52;;;;;;;8.48;61.32;101673.13;5052607;28;20048;-72
2022/03/20 08:44:31;;;;;;;32.22;19.90;;;;;;;8.80;60.89;101663.91;5053636;28;20047;-71
2022/03/20 08:47:15;;;;;;;35.17;21.00;;;;;;;8.83;60.74;101677.00;5053610;28;20047;-72
2022/03/20 08:49:59;;;;;;;32.20;21.13;;;;;;;8.60;61.35;101695.38;5053249;28;20075;-71
2022/03/20 08:52:45;;;;;;;33.70;19.88;;;;;;;8.79;59.46;101701.25;5052573;28;20052;-72
2022/03/20 08:55:33;;;;;;;32.28;20.27;;;;;;;9.05;58.39;101716.38;5052219;28;20408;-71
2022/03/20 08:58:17;;;;;;;34.35;20.58;;;;;;;9.01;59.06;101723.69;5052002;28;20207;-71
2022/03/20 09:01:02;;;;;;;34.83;20.10;;;;;;;9.11;58.08;101737.25;5052388;28;20059;-71
2022/03/20 09:03:49;;;;;;;30.65;19.67;;;;;;;8.77;58.42;101751.00;5052444;28;20102;-71
2022/03/20 09:06:33;;;;;;;29.15;19.02;;;;;;;8.64;59.25;101748.25;5053391;28;20060;-72
2022/03/20 09:09:20;;;;;;;32.47;18.90;;;;;;;9.07;58.11;101741.91;5052941;28;20052;-71
2022/03/20 09:12:05;;;;;;;31.48;19.02;;;;;;;8.84;57.77;101753.19;5052094;28;20048;-72
2022/03/20 09:14:49;;;;;;;32.25;18.60;;;;;;;9.07;58.19;101749.06;5053562;28;20040;-72
2022/03/20 09:20:38;;;;;;;30.20;17.95;;;;;;;9.11;58.37;101758.53;5052655;28;20044;-71
2022/03/20 09:23:22;;;;;;;32.33;19.55;;;;;;;9.16;58.49;101753.78;5051932;28;20091;-71
2022/03/20 09:26:06;;;;;;;32.08;20.98;;;;;;;8.83;59.24;101764.78;5051918;28;20103;-71
2022/03/20 09:28:50;;;;;;;30.67;19.30;;;;;;;9.28;58.95;101758.31;5037816;28;20094;-71
2022/03/20 09:31:37;;;;;;;33.70;20.75;;;;;;;8.88;60.60;101764.47;5051855;28;20052;-71
2022/03/20 09:34:21;;;;;;;33.85;19.45;;;;;;;9.18;60.90;101762.50;5053355;28;20048;-72
2022/03/20 09:37:05;;;;;;;31.65;19.25;;;;;;;9.39;61.12;101761.09;5052173;28;20048;-72
2022/03/20 09:39:49;;;;;;;36.65;21.08;;;;;;;9.28;60.06;101760.97;5051728;28;20430;-72
2022/03/20 09:42:34;;;;;;;33.03;20.38;;;;;;;9.24;60.75;101751.44;5052049;28;20043;-72
2022/03/20 09:45:18;;;;;;;29.27;19.05;;;;;;;9.32;61.24;101755.34;5038300;28;20094;-71
2022/03/20 09:48:07;;;;;;;31.02;19.45;;;;;;;9.15;61.59;101755.56;5051735;28;20044;-71
2022/03/20 09:50:50;;;;;;;31.27;19.83;;;;;;;9.17;63.65;101763.47;5052597;28;20048;-71
2022/03/20 09:53:34;;;;;;;34.17;19.45;;;;;;;9.28;62.96;101768.94;5052958;28;20435;-71
2022/03/20 09:56:18;;;;;;;30.38;19.95;;;;;;;9.15;64.41;101766.22;5052218;28;20594;-71
2022/03/20 09:59:02;;;;;;;36.75;20.58;;;;;;;8.79;67.52;101778.34;5037589;28;20079;-73
2022/03/20 10:01:46;;;;;;;34.70;20.02;;;;;;;8.85;68.40;101770.84;5054826;28;20408;-72
2022/03/20 10:04:33;;;;;;;35.75;21.35;;;;;;;9.05;67.09;101772.25;5055648;28;20052;-72
2022/03/20 10:07:21;;;;;;;32.75;19.38;;;;;;;9.33;67.00;101766.81;5041541;28;20063;-72
2022/03/20 10:10:16;;;;;;;32.05;18.40;;;;;;;9.54;65.49;101760.09;5055162;28;20479;-72
2022/03/20 10:13:00;;;;;;;26.63;18.98;;;;;;;10.34;62.25;101754.47;5056107;28;20055;-72
2022/03/20 10:15:44;;;;;;;34.63;19.50;;;;;;;10.71;61.92;101745.59;5056100;28;20056;-72
2022/03/20 10:18:28;;;;;;;33.35;20.33;;;;;;;11.04;59.05;101739.66;5054836;28;20048;-72
2022/03/20 10:21:12;;;;;;;31.75;20.73;;;;;;;10.86;60.77;101744.47;5055306;28;20136;-72
2022/03/20 10:23:56;;;;;;;;;;;;;;;11.31;59.76;101745.63;5055393;28;20127;-72
2022/03/20 10:26:40;;;;;;;30.83;19.75;;;;;;;11.35;58.79;101742.59;5054945;28;19920;-72
2022/03/20 10:29:24;;;;;;;32.60;20.20;;;;;;;11.62;57.70;101743.25;5055844;28;20085;-72
2022/03/20 10:32:08;;;;;;;33.20;20.75;;;;;;;11.45;58.03;101738.28;5055705;28;20420;-72
2022/03/20 10:34:57;;;;;;;32.33;19.27;;;;;;;11.80;57.51;101741.84;5054562;28;20103;-72
2022/03/20 10:37:48;;;;;;;34.67;20.95;;;;;;;12.14;56.81;101746.34;5055905;28;20051;-72
2022/03/20 10:40:32;;;;;;;122.72;55.30;;;;;;;12.08;59.18;101746.78;5055576;28;20055;-72
2022/03/20 10:43:17;;;;;;;37.63;22.02;;;;;;;12.63;58.26;101744.19;5040500;28;20416;-72
2022/03/20 10:46:01;;;;;;;29.45;19.88;;;;;;;12.81;56.74;101748.06;5054831;28;20607;-72
2022/03/20 10:48:48;;;;;;;29.98;19.27;;;;;;;14.69;51.07;101731.00;5055663;28;20047;-72
2022/03/20 10:51:40;;;;;;;29.48;20.17;;;;;;;16.86;44.77;101728.41;5041150;28;20110;-73
2022/03/20 10:54:25;;;;;;;27.10;19.80;;;;;;;16.86;44.77;101728.41;5054709;28;20159;-70
2022/03/20 10:57:11;;;;;;;29.38;20.30;;;;;;;20.12;37.59;101727.97;5054453;28;20048;-70
2022/03/20 11:00:00;;;;;;;29.98;20.13;;;;;;;20.26;36.94;101727.25;5054241;28;20175;-70
2022/03/20 11:02:44;;;;;;;25.10;19.63;;;;;;;20.42;37.27;101724.53;5054467;28;20043;-71
2022/03/20 11:05:28;;;;;;;29.00;21.13;;;;;;;22.02;33.60;101728.09;5055459;28;20102;-71
2022/03/20 11:08:11;;;;;;;;;;;;;;;-139.48;100.00;49160.72;5055546;28;20158;-72
2022/03/20 11:10:56;;;;;;;31.98;23.48;;;;;;;-139.48;100.00;61774.03;5054431;28;19919;-71
2022/03/20 11:13:45;;;;;;;30.42;27.15;;;;;;;22.02;33.60;101728.09;5040266;28;20059;-71
2022/03/20 11:16:34;;;;;;;27.17;22.85;;;;;;;26.33;27.86;101707.91;5054348;28;20048;-71
2022/03/20 11:19:22;;;;;;;28.58;21.98;;;;;;;26.73;27.48;101715.84;5054955;28;20072;-71
2022/03/20 11:22:09;;;;;;;29.55;22.00;;;;;;;27.48;26.97;101719.56;5039820;28;20079;-71
2022/03/20 11:24:55;;;;;;;32.50;23.25;;;;;;;26.79;26.73;101717.75;5054078;28;20079;-70
2022/03/20 11:27:41;;;;;;;30.10;24.67;;;;;;;27.55;26.36;101720.38;5054100;28;20043;-71
2022/03/20 11:30:30;;;;;;;36.92;29.88;;;;;;;25.85;26.91;101709.16;5054650;28;20043;-71
2022/03/20 11:33:14;;;;;;;36.58;30.10;;;;;;;27.55;25.59;101711.31;5053898;28;20182;-71
2022/03/20 11:36:01;;;;;;;42.28;34.35;;;;;;;27.95;25.09;101713.56;5054115;28;20098;-71
2022/03/20 11:39:07;;;;;;;25.95;22.52;;;;;;;27.71;25.13;101700.66;5053661;28;20128;-70
2022/03/20 11:42:19;;;;;;;26.35;22.85;;;;;;;26.57;26.61;101699.88;5054416;28;20475;-70
2022/03/20 11:45:04;;;;;;;26.58;22.50;;;;;;;26.92;26.78;101693.88;5053714;28;20126;-71
2022/03/20 11:47:50;;;;;;;37.83;30.92;;;;;;;28.92;24.80;101684.41;5054907;28;20071;-71
2022/03/20 11:50:41;;;;;;;24.52;21.13;;;;;;;27.77;25.57;101688.84;5053274;28;20099;-71
2022/03/20 11:53:26;;;;;;;27.92;22.75;;;;;;;28.69;24.78;101673.25;5053564;28;20471;-71
2022/03/20 11:56:29;;;;;;;33.88;26.50;;;;;;;29.37;23.37;101666.44;5053504;28;20409;-71
2022/03/20 11:59:45;;;;;;;27.10;20.87;;;;;;;27.76;24.49;101670.75;5053286;28;20118;-71
2022/03/20 12:03:08;;;;;;;41.60;29.77;;;;;;;28.07;24.68;101662.47;5051781;28;20044;-71
2022/03/20 12:06:11;;;;;;;28.60;20.90;;;;;;;29.36;23.01;101658.47;5054035;28;20144;-71
2022/03/20 12:09:10;;;;;;;30.77;25.37;;;;;;;31.20;22.68;101656.63;5053930;28;20511;-70
2022/03/20 12:12:10;;;;;;;24.38;19.65;;;;;;;33.02;20.14;101649.13;5053143;28;20091;-71
2022/03/20 12:14:56;;;;;;;25.77;21.80;;;;;;;31.79;21.55;101651.44;5053427;28;20043;-71
2022/03/20 12:18:00;;;;;;;23.45;19.90;;;;;;;31.92;21.49;101653.00;5053064;28;20099;-71
2022/03/20 12:20:51;;;;;;;23.55;19.20;;;;;;;32.06;21.55;101654.34;5053948;28;20123;-71
2022/03/20 12:23:43;;;;;;;23.38;19.38;;;;;;;29.55;23.20;101636.19;5052704;28;20083;-71
2022/03/20 12:26:31;;;;;;;24.95;19.58;;;;;;;29.25;24.42;101640.03;5052604;28;20106;-71
2022/03/20 12:29:35;;;;;;;22.30;17.45;;;;;;;28.38;25.21;101640.47;5053534;28;20130;-71
2022/03/20 12:32:20;;;;;;;32.22;26.58;;;;;;;27.15;27.64;101642.25;5053588;28;20052;-71
2022/03/20 12:35:04;;;;;;;21.83;17.48;;;;;;;25.68;28.76;101636.81;5038481;28;20080;-71
2022/03/20 12:37:50;;;;;;;39.75;32.30;;;;;;;26.25;28.25;101631.56;5052430;28;20076;-71
2022/03/20 12:40:34;;;;;;;26.85;19.45;;;;;;;26.16;28.75;101630.13;5038634;28;20051;-71
2022/03/20 12:43:20;;;;;;;34.15;27.42;;;;;;;25.43;29.37;101631.13;5052692;28;20047;-71
2022/03/20 12:46:07;;;;;;;32.45;26.60;;;;;;;24.01;31.30;101633.16;5052395;28;20137;-71
2022/03/20 12:48:55;;;;;;;18.92;15.82;;;;;;;24.58;30.18;101618.22;5053491;28;20059;-71
2022/03/20 12:51:40;;;;;;;29.25;24.08;;;;;;;23.90;31.90;101615.47;5052298;28;20055;-71
2022/03/20 12:54:24;;;;;;;21.63;15.30;;;;;;;23.73;31.67;101627.66;5052303;28;20048;-71
2022/03/20 12:57:08;;;;;;;20.15;15.18;;;;;;;23.54;31.66;101624.78;5052098;28;20047;-71
2022/03/20 13:00:13;;;;;;;21.95;14.35;;;;;;;23.79;30.66;101626.88;5053272;28;20520;-71
2022/03/20 13:03:08;;;;;;;20.50;13.82;;;;;;;23.96;30.30;101622.84;5053180;28;20044;-71
2022/03/20 13:05:57;;;;;;;18.73;13.93;;;;;;;24.09;30.23;101621.06;5052460;28;20396;-71
2022/03/20 13:08:44;;;;;;;18.25;14.18;;;;;;;23.69;30.64;101622.81;5052368;28;20080;-71
2022/03/20 13:11:48;;;;;;;19.13;14.05;;;;;;;23.30;31.71;101623.28;5052359;28;20132;-71
2022/03/20 13:14:33;;;;;;;20.80;16.65;;;;;;;22.17;32.90;101612.19;5052538;28;20047;-71
2022/03/20 13:17:26;;;;;;;19.83;14.13;;;;;;;22.85;32.51;101606.44;5052270;28;20044;-71
2022/03/20 13:20:20;;;;;;;21.43;14.80;;;;;;;22.47;31.75;101604.88;5052189;28;20128;-71
2022/03/20 13:23:11;;;;;;;19.70;13.90;;;;;;;22.84;31.97;101596.59;5053227;28;20044;-71